createdAt,value
2022-12-03T00:04:14.619Z,32.20
2022-12-03T00:09:18.313Z,35.80
2022-12-03T00:14:22.133Z,32.67
2022-12-03T00:19:27.718Z,34.70
2022-12-03T00:24:31.365Z,36.15
2022-12-03T00:29:35.083Z,36.40
2022-12-03T00:34:40.098Z,40.12
2022-12-03T00:39:43.774Z,32.63
2022-12-03T00:44:47.486Z,38.00
2022-12-03T00:49:52.859Z,35.35
2022-12-03T00:54:57.073Z,37.70
2022-12-03T01:00:01.034Z,37.80
2022-12-03T01:05:07.330Z,39.47
2022-12-03T01:10:13.786Z,42.67
2022-12-03T01:15:17.585Z,39.17
2022-12-03T01:20:23.027Z,42.60
2022-12-03T01:25:26.725Z,41.13
2022-12-03T01:30:50.554Z,38.60
2022-12-03T01:35:55.636Z,41.63
2022-12-03T01:40:59.684Z,42.22
2022-12-03T01:46:03.697Z,42.33
2022-12-03T01:51:09.314Z,41.85
2022-12-03T01:56:15.613Z,42.00
2022-12-03T02:01:20.365Z,45.75
2022-12-03T02:06:29.738Z,45.00
2022-12-03T02:11:36.668Z,43.87
2022-12-03T02:16:42.315Z,44.42
2022-12-03T02:21:55.885Z,45.33
2022-12-03T02:27:00.962Z,44.35
2022-12-03T02:32:04.896Z,45.65
2022-12-03T02:37:12.674Z,44.72
2022-12-03T02:42:37.034Z,43.30
2022-12-03T02:47:44.219Z,47.20
2022-12-03T02:52:48.933Z,47.53
2022-12-03T02:57:54.380Z,45.10
2022-12-03T03:02:58.433Z,45.60
2022-12-03T03:08:03.020Z,45.05
2022-12-03T03:13:11.185Z,46.75
2022-12-03T03:23:23.870Z,47.10
2022-12-03T03:28:30.850Z,46.17
2022-12-03T03:33:35.594Z,48.13
2022-12-03T03:38:40.162Z,44.25
2022-12-03T03:43:46.918Z,48.78
2022-12-03T03:48:52.171Z,44.65
2022-12-03T03:53:56.275Z,44.97
2022-12-03T03:59:01.513Z,53.75
2022-12-03T04:04:08.652Z,46.42
2022-12-03T04:09:12.559Z,34.30
2022-12-03T04:14:17.608Z,48.83
2022-12-03T04:19:21.352Z,48.75
2022-12-03T04:24:25.095Z,46.80
2022-12-03T04:29:30.150Z,47.40
2022-12-03T04:35:03.429Z,49.30
2022-12-03T04:40:28.493Z,49.63
2022-12-03T04:45:33.541Z,44.80
2022-12-03T04:50:37.331Z,48.47
2022-12-03T04:55:41.772Z,48.28
2022-12-03T05:00:46.868Z,49.67
2022-12-03T05:05:50.558Z,47.97
2022-12-03T05:10:54.298Z,51.70
2022-12-03T05:15:59.858Z,47.13
2022-12-03T05:21:03.811Z,49.78
2022-12-03T05:26:08.738Z,53.30
2022-12-03T05:31:13.920Z,51.08
2022-12-03T05:36:17.750Z,50.33
2022-12-03T05:41:38.999Z,50.80
2022-12-03T05:46:44.089Z,49.60
2022-12-03T05:51:47.908Z,47.65
2022-12-03T05:56:51.690Z,53.72
2022-12-03T06:01:56.732Z,58.58
2022-12-03T06:07:00.451Z,49.22
2022-12-03T06:12:06.410Z,51.20
2022-12-03T06:17:11.608Z,50.42
2022-12-03T06:22:15.419Z,52.17
2022-12-03T06:27:19.184Z,49.92
2022-12-03T06:32:24.263Z,49.70
2022-12-03T06:37:27.958Z,48.38
2022-12-03T06:42:31.653Z,47.45
2022-12-03T06:47:36.702Z,49.60
2022-12-03T06:52:40.573Z,53.72
2022-12-03T06:57:44.258Z,48.92
2022-12-03T07:02:49.388Z,52.60
2022-12-03T07:07:55.360Z,49.83
2022-12-03T07:12:59.188Z,47.53
2022-12-03T07:18:04.185Z,53.63
2022-12-03T07:23:07.861Z,52.50
2022-12-03T07:28:11.560Z,51.55
2022-12-03T07:33:16.595Z,48.67
2022-12-03T07:38:20.399Z,53.85
2022-12-03T07:43:24.074Z,53.13
2022-12-03T07:48:29.169Z,51.50
2022-12-03T07:53:32.845Z,49.35
2022-12-03T07:58:36.618Z,47.45
2022-12-03T08:03:42.895Z,51.88
2022-12-03T08:08:46.642Z,50.17
2022-12-03T08:13:50.314Z,48.65
2022-12-03T08:18:57.445Z,52.35
2022-12-03T08:24:13.681Z,48.50
2022-12-03T08:29:20.140Z,46.72
2022-12-03T08:34:28.397Z,46.58
2022-12-03T08:39:34.295Z,50.53
2022-12-03T08:44:40.963Z,47.08
2022-12-03T08:49:50.960Z,48.05
2022-12-03T08:54:57.956Z,49.00
2022-12-03T09:00:11.106Z,50.10
2022-12-03T09:05:21.930Z,50.10
2022-12-03T09:10:25.644Z,53.45
2022-12-03T09:15:29.880Z,51.50
2022-12-03T09:20:35.001Z,50.85
2022-12-03T09:25:38.780Z,54.55
2022-12-03T09:30:42.480Z,50.33
2022-12-03T09:35:47.504Z,56.35
2022-12-03T09:40:51.327Z,54.80
2022-12-03T09:45:55.325Z,60.00
2022-12-03T09:51:00.431Z,58.22
2022-12-03T09:56:04.193Z,53.25
2022-12-03T10:01:13.626Z,53.22
2022-12-03T10:06:20.870Z,56.75
2022-12-03T10:11:26.133Z,55.93
2022-12-03T10:16:30.493Z,59.08
2022-12-03T10:21:38.050Z,64.07
2022-12-03T10:26:42.021Z,64.53
2022-12-03T10:31:47.392Z,62.65
2022-12-03T10:37:10.393Z,67.47
2022-12-03T10:42:16.835Z,59.40
2022-12-03T10:47:24.953Z,59.35
2022-12-03T10:57:33.696Z,58.38
2022-12-03T11:02:37.476Z,59.50
2022-12-03T11:07:43.859Z,50.00
2022-12-03T11:13:21.096Z,56.70
2022-12-03T11:19:00.059Z,59.87
2022-12-03T11:24:17.442Z,61.88
2022-12-03T11:29:48.896Z,65.73
2022-12-03T11:34:52.977Z,67.05
2022-12-03T11:40:39.172Z,61.30
2022-12-03T11:45:43.482Z,62.45
2022-12-03T11:50:52.765Z,62.00
2022-12-03T11:56:08.904Z,56.40
2022-12-03T12:01:14.206Z,49.45
2022-12-03T12:06:19.523Z,50.85
2022-12-03T12:11:28.269Z,43.05
2022-12-03T12:16:40.955Z,46.58
2022-12-03T12:21:47.780Z,42.22
2022-12-03T12:26:53.150Z,40.47
2022-12-03T12:32:03.389Z,45.78
2022-12-03T12:37:12.022Z,39.20
2022-12-03T12:42:31.035Z,37.45
2022-12-03T12:47:36.413Z,38.67
2022-12-03T12:52:59.997Z,36.80
2022-12-03T12:58:12.593Z,40.75
2022-12-03T13:03:19.018Z,41.88
2022-12-03T13:08:26.748Z,39.70
2022-12-03T13:13:43.546Z,39.55
2022-12-03T13:18:49.738Z,44.00
2022-12-03T13:23:56.112Z,41.65
2022-12-03T13:29:07.426Z,43.78
2022-12-03T13:34:17.243Z,41.60
2022-12-03T13:39:24.811Z,40.10
2022-12-03T13:44:31.775Z,43.08
2022-12-03T13:49:35.863Z,39.72
2022-12-03T13:54:40.272Z,41.95
2022-12-03T13:59:45.306Z,43.90
2022-12-03T14:04:49.003Z,49.00
2022-12-03T14:09:52.982Z,49.10
2022-12-03T14:14:58.327Z,45.22
2022-12-03T14:20:02.110Z,49.75
2022-12-03T14:25:06.820Z,44.15
2022-12-03T14:30:13.077Z,48.10
2022-12-03T14:35:16.996Z,49.25
2022-12-03T14:40:22.253Z,48.05
2022-12-03T14:45:28.797Z,53.28
2022-12-03T14:50:32.693Z,47.67
2022-12-03T14:55:36.439Z,59.55
2022-12-03T15:00:41.473Z,54.75
2022-12-03T15:05:45.373Z,55.33
2022-12-03T15:10:49.156Z,54.22
2022-12-03T15:15:54.376Z,57.08
2022-12-03T15:20:58.195Z,55.78
2022-12-03T15:26:02.085Z,57.70
2022-12-03T15:31:07.339Z,51.40
2022-12-03T15:36:11.204Z,57.20
2022-12-03T15:41:24.714Z,54.28
2022-12-03T15:46:31.344Z,53.78
2022-12-03T15:51:35.215Z,57.85
2022-12-03T15:56:38.902Z,52.05
2022-12-03T16:01:44.098Z,54.55
2022-12-03T16:06:47.840Z,56.30
2022-12-03T16:11:51.598Z,56.40
2022-12-03T16:16:58.819Z,61.53
2022-12-03T16:22:02.584Z,59.90
2022-12-03T16:27:06.411Z,58.17
2022-12-03T16:32:11.522Z,58.85
2022-12-03T16:37:15.194Z,61.30
2022-12-03T16:42:24.703Z,60.90
2022-12-03T16:47:33.838Z,70.65
2022-12-03T16:52:37.950Z,69.03
2022-12-03T16:57:41.669Z,62.17
2022-12-03T17:02:46.863Z,65.85
2022-12-03T17:07:50.688Z,66.90
2022-12-03T17:13:09.382Z,61.85
2022-12-03T17:18:15.311Z,60.55
2022-12-03T17:23:19.088Z,61.50
2022-12-03T17:28:22.782Z,61.55
2022-12-03T17:33:27.824Z,67.45
2022-12-03T17:38:37.310Z,73.78
2022-12-03T17:43:42.942Z,66.80
2022-12-03T17:48:48.003Z,69.53
2022-12-03T17:53:51.914Z,69.28
2022-12-03T17:58:57.139Z,76.07
2022-12-03T18:04:02.335Z,68.55
2022-12-03T18:09:06.538Z,77.85
2022-12-03T18:14:10.341Z,69.70
2022-12-03T18:19:15.401Z,71.40
2022-12-03T18:24:19.284Z,70.68
2022-12-03T18:29:23.073Z,67.45
2022-12-03T18:34:28.129Z,67.22
2022-12-03T18:39:36.613Z,70.47
2022-12-03T18:44:43.825Z,72.25
2022-12-03T18:49:53.559Z,68.10
2022-12-03T18:54:57.727Z,63.10
2022-12-03T19:00:01.511Z,66.18
2022-12-03T19:05:07.735Z,66.90
2022-12-03T19:10:12.821Z,70.22
2022-12-03T19:15:16.973Z,63.03
2022-12-03T19:20:22.174Z,65.97
2022-12-03T19:25:25.957Z,78.53
2022-12-03T19:30:29.674Z,74.50
2022-12-03T19:35:40.177Z,73.50
2022-12-03T19:40:43.927Z,78.53
2022-12-03T19:45:47.711Z,81.18
2022-12-03T19:51:07.847Z,78.07
2022-12-03T19:56:20.034Z,90.75
2022-12-03T20:01:26.469Z,79.55
2022-12-03T20:06:33.617Z,86.65
2022-12-03T20:11:37.513Z,84.37
2022-12-03T20:16:41.439Z,86.80
2022-12-03T20:21:46.692Z,84.37
2022-12-03T20:26:50.431Z,89.40
2022-12-03T20:31:54.188Z,92.72
2022-12-03T20:36:59.287Z,88.85
2022-12-03T20:42:03.092Z,88.93
2022-12-03T20:47:07.119Z,86.72
2022-12-03T20:52:12.614Z,88.78
2022-12-03T20:57:16.422Z,88.60
2022-12-03T21:02:20.243Z,93.72
2022-12-03T21:07:25.389Z,87.57
2022-12-03T21:12:29.157Z,95.87
2022-12-03T21:17:32.903Z,93.50
2022-12-03T21:22:38.188Z,92.95
2022-12-03T21:27:41.872Z,92.70
2022-12-03T21:32:45.594Z,83.82
2022-12-03T21:37:51.634Z,96.07
2022-12-03T21:42:55.375Z,89.85
2022-12-03T21:47:59.183Z,89.03
2022-12-03T21:53:04.890Z,86.22
2022-12-03T21:58:08.808Z,92.50
2022-12-03T22:03:12.670Z,88.75
2022-12-03T22:08:17.945Z,91.57
2022-12-03T22:13:21.694Z,91.70
2022-12-03T22:18:25.405Z,101.97
2022-12-03T22:23:30.789Z,95.95
2022-12-03T22:28:35.971Z,97.62
2022-12-03T22:33:40.072Z,102.43
2022-12-03T22:38:45.310Z,102.40
2022-12-03T22:43:49.850Z,103.97
2022-12-03T22:48:53.630Z,101.87
2022-12-03T22:54:00.092Z,103.43
2022-12-03T22:59:04.183Z,95.20
2022-12-03T23:04:09.307Z,104.18
2022-12-03T23:09:14.467Z,106.25
2022-12-03T23:14:18.244Z,106.05
2022-12-03T23:19:22.593Z,102.50
2022-12-03T23:24:28.629Z,101.35
2022-12-03T23:29:32.350Z,96.47
2022-12-03T23:34:36.143Z,100.10
2022-12-03T23:39:41.599Z,101.18
2022-12-03T23:44:45.410Z,110.32
2022-12-03T23:49:49.137Z,102.47
2022-12-03T23:54:54.158Z,101.97
2022-12-03T23:59:57.864Z,101.47
